sensor_id;sensor_type;location;lat;lon;timestamp;P1;durP1;ratioP1;P2;durP2;ratioP2
12129;SDS011;6128;59.340;18.040;2022-10-22T00:00:42;2.10;;;1.90;;
12129;SDS011;6128;59.340;18.040;2022-10-22T00:03:09;3.83;;;1.90;;
12129;SDS011;6128;59.340;18.040;2022-10-22T00:05:36;1.80;;;1.70;;
12129;SDS011;6128;59.340;18.040;2022-10-22T00:08:03;2.73;;;1.90;;
12129;SDS011;6128;59.340;18.040;2022-10-22T00:10:32;2.70;;;1.80;;
12129;SDS011;6128;59.340;18.040;2022-10-22T00:12:59;2.93;;;1.90;;
12129;SDS011;6128;59.340;18.040;2022-10-22T00:15:26;2.00;;;1.67;;
12129;SDS011;6128;59.340;18.040;2022-10-22T00:17:53;1.67;;;1.57;;
12129;SDS011;6128;59.340;18.040;2022-10-22T00:20:20;1.53;;;1.43;;
12129;SDS011;6128;59.340;18.040;2022-10-22T00:22:48;2.53;;;1.47;;
12129;SDS011;6128;59.340;18.040;2022-10-22T00:25:15;2.33;;;1.87;;
12129;SDS011;6128;59.340;18.040;2022-10-22T00:27:44;1.73;;;1.47;;
12129;SDS011;6128;59.340;18.040;2022-10-22T00:30:11;2.53;;;2.00;;
12129;SDS011;6128;59.340;18.040;2022-10-22T00:32:39;1.90;;;1.57;;
12129;SDS011;6128;59.340;18.040;2022-10-22T00:35:06;3.03;;;1.43;;
12129;SDS011;6128;59.340;18.040;2022-10-22T00:37:33;2.33;;;2.07;;
12129;SDS011;6128;59.340;18.040;2022-10-22T00:40:00;1.90;;;1.80;;
12129;SDS011;6128;59.340;18.040;2022-10-22T00:42:29;3.03;;;1.93;;
12129;SDS011;6128;59.340;18.040;2022-10-22T00:45:03;2.40;;;1.77;;
12129;SDS011;6128;59.340;18.040;2022-10-22T00:47:43;4.53;;;1.67;;
12129;SDS011;6128;59.340;18.040;2022-10-22T00:50:17;2.77;;;1.90;;
12129;SDS011;6128;59.340;18.040;2022-10-22T00:52:48;1.70;;;1.23;;
12129;SDS011;6128;59.340;18.040;2022-10-22T00:55:16;1.70;;;1.60;;
12129;SDS011;6128;59.340;18.040;2022-10-22T00:57:44;2.23;;;1.43;;
12129;SDS011;6128;59.340;18.040;2022-10-22T01:00:14;2.10;;;1.50;;
12129;SDS011;6128;59.340;18.040;2022-10-22T01:02:42;4.30;;;1.53;;
12129;SDS011;6128;59.340;18.040;2022-10-22T01:05:10;3.07;;;1.50;;
12129;SDS011;6128;59.340;18.040;2022-10-22T01:07:40;3.53;;;1.87;;
12129;SDS011;6128;59.340;18.040;2022-10-22T01:10:15;1.50;;;1.40;;
12129;SDS011;6128;59.340;18.040;2022-10-22T01:12:50;1.60;;;1.50;;
12129;SDS011;6128;59.340;18.040;2022-10-22T01:15:30;2.40;;;1.90;;
12129;SDS011;6128;59.340;18.040;2022-10-22T01:18:04;2.07;;;1.47;;
12129;SDS011;6128;59.340;18.040;2022-10-22T01:20:41;2.43;;;1.40;;
12129;SDS011;6128;59.340;18.040;2022-10-22T01:23:22;1.50;;;1.40;;
12129;SDS011;6128;59.340;18.040;2022-10-22T01:26:08;2.57;;;1.97;;
12129;SDS011;6128;59.340;18.040;2022-10-22T01:28:48;2.60;;;1.87;;
12129;SDS011;6128;59.340;18.040;2022-10-22T01:31:23;1.93;;;1.60;;
12129;SDS011;6128;59.340;18.040;2022-10-22T01:33:53;1.60;;;1.50;;
12129;SDS011;6128;59.340;18.040;2022-10-22T01:36:20;2.77;;;1.47;;
12129;SDS011;6128;59.340;18.040;2022-10-22T01:38:48;2.17;;;1.53;;
12129;SDS011;6128;59.340;18.040;2022-10-22T01:41:16;1.63;;;1.50;;
12129;SDS011;6128;59.340;18.040;2022-10-22T01:43:44;3.93;;;1.97;;
12129;SDS011;6128;59.340;18.040;2022-10-22T01:46:12;2.23;;;1.57;;
12129;SDS011;6128;59.340;18.040;2022-10-22T01:48:44;2.10;;;1.57;;
12129;SDS011;6128;59.340;18.040;2022-10-22T01:51:28;3.50;;;1.50;;
12129;SDS011;6128;59.340;18.040;2022-10-22T01:54:05;2.67;;;1.90;;
12129;SDS011;6128;59.340;18.040;2022-10-22T01:56:43;2.77;;;1.60;;
12129;SDS011;6128;59.340;18.040;2022-10-22T01:59:21;2.03;;;1.47;;
12129;SDS011;6128;59.340;18.040;2022-10-22T02:02:01;1.73;;;1.63;;
12129;SDS011;6128;59.340;18.040;2022-10-22T02:04:32;1.90;;;1.70;;
12129;SDS011;6128;59.340;18.040;2022-10-22T02:07:06;2.70;;;2.37;;
12129;SDS011;6128;59.340;18.040;2022-10-22T02:09:35;2.77;;;1.30;;
12129;SDS011;6128;59.340;18.040;2022-10-22T02:12:05;2.47;;;1.53;;
12129;SDS011;6128;59.340;18.040;2022-10-22T02:14:34;2.53;;;1.73;;
12129;SDS011;6128;59.340;18.040;2022-10-22T02:17:05;2.23;;;1.60;;
12129;SDS011;6128;59.340;18.040;2022-10-22T02:19:37;2.23;;;1.60;;
12129;SDS011;6128;59.340;18.040;2022-10-22T02:22:07;2.10;;;1.73;;
12129;SDS011;6128;59.340;18.040;2022-10-22T02:24:35;2.20;;;1.93;;
12129;SDS011;6128;59.340;18.040;2022-10-22T02:27:03;1.87;;;1.40;;
12129;SDS011;6128;59.340;18.040;2022-10-22T02:29:37;1.63;;;1.43;;
12129;SDS011;6128;59.340;18.040;2022-10-22T02:32:08;2.80;;;1.50;;
12129;SDS011;6128;59.340;18.040;2022-10-22T02:34:37;2.00;;;1.43;;
12129;SDS011;6128;59.340;18.040;2022-10-22T02:37:05;1.83;;;1.60;;
12129;SDS011;6128;59.340;18.040;2022-10-22T02:39:34;3.23;;;1.67;;
12129;SDS011;6128;59.340;18.040;2022-10-22T02:42:02;2.60;;;1.73;;
12129;SDS011;6128;59.340;18.040;2022-10-22T02:44:30;1.90;;;1.70;;
12129;SDS011;6128;59.340;18.040;2022-10-22T02:46:57;2.10;;;1.90;;
12129;SDS011;6128;59.340;18.040;2022-10-22T02:49:27;1.80;;;1.57;;
12129;SDS011;6128;59.340;18.040;2022-10-22T02:51:54;1.77;;;1.40;;
12129;SDS011;6128;59.340;18.040;2022-10-22T02:54:21;1.77;;;1.67;;
12129;SDS011;6128;59.340;18.040;2022-10-22T02:56:48;2.20;;;1.70;;
12129;SDS011;6128;59.340;18.040;2022-10-22T02:59:15;1.87;;;1.73;;
12129;SDS011;6128;59.340;18.040;2022-10-22T03:01:42;1.73;;;1.57;;
12129;SDS011;6128;59.340;18.040;2022-10-22T03:04:10;2.73;;;1.77;;
12129;SDS011;6128;59.340;18.040;2022-10-22T03:06:38;2.20;;;1.40;;
12129;SDS011;6128;59.340;18.040;2022-10-22T03:09:08;1.77;;;1.53;;
12129;SDS011;6128;59.340;18.040;2022-10-22T03:11:35;2.47;;;1.53;;
12129;SDS011;6128;59.340;18.040;2022-10-22T03:14:02;2.50;;;1.70;;
12129;SDS011;6128;59.340;18.040;2022-10-22T03:16:29;2.63;;;1.93;;
12129;SDS011;6128;59.340;18.040;2022-10-22T03:18:56;1.70;;;1.60;;
12129;SDS011;6128;59.340;18.040;2022-10-22T03:21:27;2.77;;;1.70;;
12129;SDS011;6128;59.340;18.040;2022-10-22T03:23:59;2.87;;;1.90;;
12129;SDS011;6128;59.340;18.040;2022-10-22T03:26:28;2.10;;;1.73;;
12129;SDS011;6128;59.340;18.040;2022-10-22T03:28:55;1.60;;;1.47;;
12129;SDS011;6128;59.340;18.040;2022-10-22T03:31:24;4.10;;;1.80;;
12129;SDS011;6128;59.340;18.040;2022-10-22T03:33:52;2.10;;;1.70;;
12129;SDS011;6128;59.340;18.040;2022-10-22T03:36:19;2.07;;;1.60;;
12129;SDS011;6128;59.340;18.040;2022-10-22T03:38:47;1.83;;;1.53;;
12129;SDS011;6128;59.340;18.040;2022-10-22T03:41:16;2.70;;;1.93;;
12129;SDS011;6128;59.340;18.040;2022-10-22T03:43:43;2.13;;;1.90;;
12129;SDS011;6128;59.340;18.040;2022-10-22T03:46:14;2.30;;;1.93;;
12129;SDS011;6128;59.340;18.040;2022-10-22T03:48:41;3.37;;;2.00;;
12129;SDS011;6128;59.340;18.040;2022-10-22T03:51:08;2.80;;;2.60;;
12129;SDS011;6128;59.340;18.040;2022-10-22T03:53:35;2.50;;;2.30;;
12129;SDS011;6128;59.340;18.040;2022-10-22T03:56:06;3.40;;;2.47;;
12129;SDS011;6128;59.340;18.040;2022-10-22T03:58:36;2.90;;;2.63;;
12129;SDS011;6128;59.340;18.040;2022-10-22T04:01:05;4.47;;;2.70;;
12129;SDS011;6128;59.340;18.040;2022-10-22T04:03:33;2.60;;;2.40;;
12129;SDS011;6128;59.340;18.040;2022-10-22T04:06:01;2.43;;;2.10;;
12129;SDS011;6128;59.340;18.040;2022-10-22T04:08:29;2.70;;;1.90;;
12129;SDS011;6128;59.340;18.040;2022-10-22T04:10:56;2.77;;;2.10;;
12129;SDS011;6128;59.340;18.040;2022-10-22T04:13:23;3.17;;;1.90;;
12129;SDS011;6128;59.340;18.040;2022-10-22T04:15:51;2.47;;;2.07;;
12129;SDS011;6128;59.340;18.040;2022-10-22T04:18:19;2.57;;;2.17;;
12129;SDS011;6128;59.340;18.040;2022-10-22T04:20:47;2.43;;;1.93;;
12129;SDS011;6128;59.340;18.040;2022-10-22T04:23:14;2.33;;;2.13;;
12129;SDS011;6128;59.340;18.040;2022-10-22T04:25:41;2.47;;;1.90;;
12129;SDS011;6128;59.340;18.040;2022-10-22T04:28:09;2.77;;;2.00;;
12129;SDS011;6128;59.340;18.040;2022-10-22T04:30:36;1.83;;;1.70;;
12129;SDS011;6128;59.340;18.040;2022-10-22T04:33:04;4.40;;;1.90;;
12129;SDS011;6128;59.340;18.040;2022-10-22T04:35:31;3.20;;;1.80;;
12129;SDS011;6128;59.340;18.040;2022-10-22T04:37:58;2.90;;;2.00;;
12129;SDS011;6128;59.340;18.040;2022-10-22T04:40:25;3.77;;;1.97;;
12129;SDS011;6128;59.340;18.040;2022-10-22T04:42:52;2.07;;;1.70;;
12129;SDS011;6128;59.340;18.040;2022-10-22T04:45:19;2.40;;;1.70;;
12129;SDS011;6128;59.340;18.040;2022-10-22T04:47:46;2.43;;;1.80;;
12129;SDS011;6128;59.340;18.040;2022-10-22T04:50:15;2.03;;;1.50;;
12129;SDS011;6128;59.340;18.040;2022-10-22T04:52:42;2.37;;;1.80;;
12129;SDS011;6128;59.340;18.040;2022-10-22T04:55:09;2.77;;;2.07;;
12129;SDS011;6128;59.340;18.040;2022-10-22T04:57:36;1.97;;;1.87;;
12129;SDS011;6128;59.340;18.040;2022-10-22T05:00:04;2.17;;;1.60;;
12129;SDS011;6128;59.340;18.040;2022-10-22T05:02:32;1.80;;;1.70;;
12129;SDS011;6128;59.340;18.040;2022-10-22T05:05:00;2.00;;;1.63;;
12129;SDS011;6128;59.340;18.040;2022-10-22T05:07:29;2.17;;;1.77;;
12129;SDS011;6128;59.340;18.040;2022-10-22T05:09:56;1.90;;;1.40;;
12129;SDS011;6128;59.340;18.040;2022-10-22T05:12:25;1.70;;;1.57;;
12129;SDS011;6128;59.340;18.040;2022-10-22T05:14:53;1.73;;;1.40;;
12129;SDS011;6128;59.340;18.040;2022-10-22T05:17:21;1.97;;;1.47;;
12129;SDS011;6128;59.340;18.040;2022-10-22T05:19:48;1.50;;;1.40;;
12129;SDS011;6128;59.340;18.040;2022-10-22T05:22:16;1.90;;;1.80;;
12129;SDS011;6128;59.340;18.040;2022-10-22T05:24:45;2.03;;;1.73;;
12129;SDS011;6128;59.340;18.040;2022-10-22T05:27:14;2.83;;;1.70;;
12129;SDS011;6128;59.340;18.040;2022-10-22T05:29:41;2.43;;;1.80;;
12129;SDS011;6128;59.340;18.040;2022-10-22T05:32:08;2.23;;;1.60;;
12129;SDS011;6128;59.340;18.040;2022-10-22T05:34:39;1.73;;;1.63;;
12129;SDS011;6128;59.340;18.040;2022-10-22T05:37:26;1.30;;;1.20;;
12129;SDS011;6128;59.340;18.040;2022-10-22T05:39:56;2.50;;;1.90;;
12129;SDS011;6128;59.340;18.040;2022-10-22T05:42:23;1.80;;;1.40;;
12129;SDS011;6128;59.340;18.040;2022-10-22T05:44:51;2.37;;;1.93;;
12129;SDS011;6128;59.340;18.040;2022-10-22T05:47:18;1.70;;;1.53;;
12129;SDS011;6128;59.340;18.040;2022-10-22T05:49:46;2.30;;;1.57;;
12129;SDS011;6128;59.340;18.040;2022-10-22T05:52:13;2.00;;;1.30;;
12129;SDS011;6128;59.340;18.040;2022-10-22T05:54:40;2.50;;;1.70;;
12129;SDS011;6128;59.340;18.040;2022-10-22T05:57:09;1.80;;;1.63;;
12129;SDS011;6128;59.340;18.040;2022-10-22T05:59:36;1.70;;;1.47;;
12129;SDS011;6128;59.340;18.040;2022-10-22T06:02:04;1.40;;;1.30;;
12129;SDS011;6128;59.340;18.040;2022-10-22T06:04:31;1.83;;;1.67;;
12129;SDS011;6128;59.340;18.040;2022-10-22T06:06:59;3.33;;;1.70;;
12129;SDS011;6128;59.340;18.040;2022-10-22T06:09:28;2.27;;;1.63;;
12129;SDS011;6128;59.340;18.040;2022-10-22T06:11:58;2.33;;;1.80;;
12129;SDS011;6128;59.340;18.040;2022-10-22T06:14:30;2.03;;;1.57;;
12129;SDS011;6128;59.340;18.040;2022-10-22T06:16:58;1.93;;;1.60;;
12129;SDS011;6128;59.340;18.040;2022-10-22T06:19:26;1.70;;;1.60;;
12129;SDS011;6128;59.340;18.040;2022-10-22T06:21:55;1.60;;;1.50;;
12129;SDS011;6128;59.340;18.040;2022-10-22T06:24:22;2.57;;;1.90;;
12129;SDS011;6128;59.340;18.040;2022-10-22T06:26:50;1.90;;;1.80;;
12129;SDS011;6128;59.340;18.040;2022-10-22T06:29:18;2.40;;;1.53;;
12129;SDS011;6128;59.340;18.040;2022-10-22T06:31:47;2.80;;;1.73;;
12129;SDS011;6128;59.340;18.040;2022-10-22T06:34:14;1.77;;;1.60;;
12129;SDS011;6128;59.340;18.040;2022-10-22T06:36:43;2.77;;;2.20;;
12129;SDS011;6128;59.340;18.040;2022-10-22T06:39:11;2.50;;;2.13;;
12129;SDS011;6128;59.340;18.040;2022-10-22T06:41:39;1.97;;;1.80;;
12129;SDS011;6128;59.340;18.040;2022-10-22T06:44:07;2.60;;;1.77;;
12129;SDS011;6128;59.340;18.040;2022-10-22T06:46:39;2.37;;;1.77;;
12129;SDS011;6128;59.340;18.040;2022-10-22T06:49:09;2.70;;;1.80;;
12129;SDS011;6128;59.340;18.040;2022-10-22T06:51:39;2.30;;;2.10;;
12129;SDS011;6128;59.340;18.040;2022-10-22T06:54:06;3.10;;;1.87;;
12129;SDS011;6128;59.340;18.040;2022-10-22T06:56:33;2.67;;;2.30;;
12129;SDS011;6128;59.340;18.040;2022-10-22T06:59:01;2.47;;;1.80;;
12129;SDS011;6128;59.340;18.040;2022-10-22T07:01:28;2.80;;;2.07;;
12129;SDS011;6128;59.340;18.040;2022-10-22T07:03:59;3.47;;;2.10;;
12129;SDS011;6128;59.340;18.040;2022-10-22T07:06:28;3.00;;;2.20;;
12129;SDS011;6128;59.340;18.040;2022-10-22T07:08:56;2.80;;;2.17;;
12129;SDS011;6128;59.340;18.040;2022-10-22T07:11:25;4.03;;;2.57;;
12129;SDS011;6128;59.340;18.040;2022-10-22T07:13:54;2.70;;;2.27;;
12129;SDS011;6128;59.340;18.040;2022-10-22T07:16:22;3.30;;;2.33;;
12129;SDS011;6128;59.340;18.040;2022-10-22T07:18:49;2.90;;;2.47;;
12129;SDS011;6128;59.340;18.040;2022-10-22T07:21:17;2.90;;;2.60;;
12129;SDS011;6128;59.340;18.040;2022-10-22T07:23:48;2.97;;;2.17;;
12129;SDS011;6128;59.340;18.040;2022-10-22T07:26:16;3.67;;;2.60;;
12129;SDS011;6128;59.340;18.040;2022-10-22T07:28:44;4.37;;;2.50;;
12129;SDS011;6128;59.340;18.040;2022-10-22T07:31:13;2.93;;;2.70;;
12129;SDS011;6128;59.340;18.040;2022-10-22T07:33:41;3.73;;;3.10;;
12129;SDS011;6128;59.340;18.040;2022-10-22T07:36:09;3.90;;;2.93;;
12129;SDS011;6128;59.340;18.040;2022-10-22T07:38:41;3.73;;;3.07;;
12129;SDS011;6128;59.340;18.040;2022-10-22T07:41:11;3.23;;;2.90;;
12129;SDS011;6128;59.340;18.040;2022-10-22T07:43:38;3.83;;;3.10;;
12129;SDS011;6128;59.340;18.040;2022-10-22T07:46:06;4.07;;;3.40;;
12129;SDS011;6128;59.340;18.040;2022-10-22T07:48:33;3.93;;;2.87;;
12129;SDS011;6128;59.340;18.040;2022-10-22T07:51:01;4.50;;;2.73;;
12129;SDS011;6128;59.340;18.040;2022-10-22T07:53:28;3.83;;;2.50;;
12129;SDS011;6128;59.340;18.040;2022-10-22T07:55:56;5.07;;;3.13;;
12129;SDS011;6128;59.340;18.040;2022-10-22T07:58:24;3.37;;;3.07;;
12129;SDS011;6128;59.340;18.040;2022-10-22T08:00:53;3.97;;;3.40;;
12129;SDS011;6128;59.340;18.040;2022-10-22T08:03:21;3.03;;;2.73;;
12129;SDS011;6128;59.340;18.040;2022-10-22T08:05:48;4.07;;;3.20;;
12129;SDS011;6128;59.340;18.040;2022-10-22T08:08:17;3.53;;;3.00;;
12129;SDS011;6128;59.340;18.040;2022-10-22T08:10:45;3.80;;;3.37;;
12129;SDS011;6128;59.340;18.040;2022-10-22T08:13:13;3.50;;;3.20;;
12129;SDS011;6128;59.340;18.040;2022-10-22T08:15:42;3.40;;;3.10;;
12129;SDS011;6128;59.340;18.040;2022-10-22T08:18:10;4.57;;;3.60;;
12129;SDS011;6128;59.340;18.040;2022-10-22T08:20:37;3.93;;;3.20;;
12129;SDS011;6128;59.340;18.040;2022-10-22T08:23:05;4.60;;;3.30;;
12129;SDS011;6128;59.340;18.040;2022-10-22T08:25:32;4.37;;;3.30;;
12129;SDS011;6128;59.340;18.040;2022-10-22T08:27:59;4.70;;;2.90;;
12129;SDS011;6128;59.340;18.040;2022-10-22T08:30:26;4.40;;;3.63;;
12129;SDS011;6128;59.340;18.040;2022-10-22T08:32:55;5.87;;;3.77;;
12129;SDS011;6128;59.340;18.040;2022-10-22T08:35:22;5.27;;;3.60;;
12129;SDS011;6128;59.340;18.040;2022-10-22T08:37:49;4.13;;;3.80;;
12129;SDS011;6128;59.340;18.040;2022-10-22T08:40:18;3.47;;;3.27;;
12129;SDS011;6128;59.340;18.040;2022-10-22T08:43:04;4.33;;;3.93;;
12129;SDS011;6128;59.340;18.040;2022-10-22T08:45:46;4.07;;;3.67;;
12129;SDS011;6128;59.340;18.040;2022-10-22T08:48:31;5.20;;;4.00;;
12129;SDS011;6128;59.340;18.040;2022-10-22T08:51:10;4.00;;;3.60;;
12129;SDS011;6128;59.340;18.040;2022-10-22T08:53:41;5.17;;;4.13;;
12129;SDS011;6128;59.340;18.040;2022-10-22T08:56:20;4.27;;;3.87;;
12129;SDS011;6128;59.340;18.040;2022-10-22T08:58:49;3.93;;;3.63;;
12129;SDS011;6128;59.340;18.040;2022-10-22T09:01:28;4.40;;;4.00;;
12129;SDS011;6128;59.340;18.040;2022-10-22T09:04:02;4.10;;;3.80;;
12129;SDS011;6128;59.340;18.040;2022-10-22T09:06:35;4.20;;;3.80;;
12129;SDS011;6128;59.340;18.040;2022-10-22T09:09:08;4.63;;;3.73;;
12129;SDS011;6128;59.340;18.040;2022-10-22T09:11:38;4.50;;;4.10;;
12129;SDS011;6128;59.340;18.040;2022-10-22T09:14:09;5.37;;;4.20;;
12129;SDS011;6128;59.340;18.040;2022-10-22T09:16:50;4.53;;;3.77;;
12129;SDS011;6128;59.340;18.040;2022-10-22T09:19:34;4.37;;;3.90;;
12129;SDS011;6128;59.340;18.040;2022-10-22T09:22:18;5.43;;;4.20;;
12129;SDS011;6128;59.340;18.040;2022-10-22T09:24:52;4.00;;;3.70;;
12129;SDS011;6128;59.340;18.040;2022-10-22T09:27:25;4.80;;;4.10;;
12129;SDS011;6128;59.340;18.040;2022-10-22T09:29:54;4.93;;;4.43;;
12129;SDS011;6128;59.340;18.040;2022-10-22T09:32:21;5.90;;;4.20;;
12129;SDS011;6128;59.340;18.040;2022-10-22T09:34:53;5.17;;;4.67;;
12129;SDS011;6128;59.340;18.040;2022-10-22T09:37:24;4.73;;;4.23;;
12129;SDS011;6128;59.340;18.040;2022-10-22T09:39:53;4.87;;;4.30;;
12129;SDS011;6128;59.340;18.040;2022-10-22T09:42:22;5.13;;;4.73;;
12129;SDS011;6128;59.340;18.040;2022-10-22T09:44:51;7.30;;;4.27;;
12129;SDS011;6128;59.340;18.040;2022-10-22T09:47:31;5.63;;;4.50;;
12129;SDS011;6128;59.340;18.040;2022-10-22T09:50:08;5.33;;;4.20;;
12129;SDS011;6128;59.340;18.040;2022-10-22T09:52:57;5.47;;;4.13;;
12129;SDS011;6128;59.340;18.040;2022-10-22T09:55:26;4.70;;;3.93;;
12129;SDS011;6128;59.340;18.040;2022-10-22T09:57:55;5.33;;;4.33;;
12129;SDS011;6128;59.340;18.040;2022-10-22T10:00:24;4.70;;;4.17;;
12129;SDS011;6128;59.340;18.040;2022-10-22T10:02:53;5.20;;;4.03;;
12129;SDS011;6128;59.340;18.040;2022-10-22T10:05:27;4.40;;;4.00;;
12129;SDS011;6128;59.340;18.040;2022-10-22T10:07:55;4.50;;;4.10;;
12129;SDS011;6128;59.340;18.040;2022-10-22T10:10:27;4.40;;;3.90;;
12129;SDS011;6128;59.340;18.040;2022-10-22T10:13:06;4.50;;;4.10;;
12129;SDS011;6128;59.340;18.040;2022-10-22T10:15:48;4.37;;;3.97;;
12129;SDS011;6128;59.340;18.040;2022-10-22T10:18:24;4.80;;;4.40;;
12129;SDS011;6128;59.340;18.040;2022-10-22T10:21:01;4.47;;;4.07;;
12129;SDS011;6128;59.340;18.040;2022-10-22T10:23:32;8.37;;;4.50;;
12129;SDS011;6128;59.340;18.040;2022-10-22T10:26:08;5.70;;;3.83;;
12129;SDS011;6128;59.340;18.040;2022-10-22T10:28:43;5.00;;;4.00;;
12129;SDS011;6128;59.340;18.040;2022-10-22T10:31:30;4.73;;;4.03;;
12129;SDS011;6128;59.340;18.040;2022-10-22T10:34:08;4.70;;;4.20;;
12129;SDS011;6128;59.340;18.040;2022-10-22T10:36:51;4.87;;;4.47;;
12129;SDS011;6128;59.340;18.040;2022-10-22T10:39:28;6.70;;;4.53;;
12129;SDS011;6128;59.340;18.040;2022-10-22T10:42:01;5.13;;;4.30;;
12129;SDS011;6128;59.340;18.040;2022-10-22T10:44:58;4.67;;;4.27;;
12129;SDS011;6128;59.340;18.040;2022-10-22T10:47:44;5.63;;;4.40;;
12129;SDS011;6128;59.340;18.040;2022-10-22T10:50:28;5.50;;;5.00;;
12129;SDS011;6128;59.340;18.040;2022-10-22T10:53:02;5.30;;;4.67;;
12129;SDS011;6128;59.340;18.040;2022-10-22T10:55:41;5.27;;;4.77;;
12129;SDS011;6128;59.340;18.040;2022-10-22T10:58:20;6.93;;;5.07;;
12129;SDS011;6128;59.340;18.040;2022-10-22T11:00:56;5.73;;;4.97;;
12129;SDS011;6128;59.340;18.040;2022-10-22T11:06:38;5.50;;;4.60;;
12129;SDS011;6128;59.340;18.040;2022-10-22T11:09:17;5.20;;;4.37;;
12129;SDS011;6128;59.340;18.040;2022-10-22T11:11:50;5.20;;;4.70;;
12129;SDS011;6128;59.340;18.040;2022-10-22T11:14:23;5.03;;;4.60;;
12129;SDS011;6128;59.340;18.040;2022-10-22T11:16:58;5.37;;;4.87;;
12129;SDS011;6128;59.340;18.040;2022-10-22T11:19:31;8.17;;;5.80;;
12129;SDS011;6128;59.340;18.040;2022-10-22T11:22:04;5.97;;;5.30;;
12129;SDS011;6128;59.340;18.040;2022-10-22T11:24:38;5.07;;;4.67;;
12129;SDS011;6128;59.340;18.040;2022-10-22T11:27:14;5.27;;;4.73;;
12129;SDS011;6128;59.340;18.040;2022-10-22T11:29:51;5.43;;;4.87;;
12129;SDS011;6128;59.340;18.040;2022-10-22T11:32:25;5.97;;;4.40;;
12129;SDS011;6128;59.340;18.040;2022-10-22T11:34:53;5.83;;;5.03;;
12129;SDS011;6128;59.340;18.040;2022-10-22T11:37:23;5.90;;;4.93;;
12129;SDS011;6128;59.340;18.040;2022-10-22T11:39:58;6.77;;;5.40;;
12129;SDS011;6128;59.340;18.040;2022-10-22T11:42:31;6.10;;;5.50;;
12129;SDS011;6128;59.340;18.040;2022-10-22T11:45:02;5.87;;;5.27;;
12129;SDS011;6128;59.340;18.040;2022-10-22T11:47:32;6.10;;;5.53;;
12129;SDS011;6128;59.340;18.040;2022-10-22T11:50:17;5.93;;;5.33;;
12129;SDS011;6128;59.340;18.040;2022-10-22T11:52:49;6.37;;;5.77;;
12129;SDS011;6128;59.340;18.040;2022-10-22T11:55:33;5.97;;;5.47;;
12129;SDS011;6128;59.340;18.040;2022-10-22T11:58:24;8.53;;;6.03;;
12129;SDS011;6128;59.340;18.040;2022-10-22T12:01:19;6.77;;;6.17;;
12129;SDS011;6128;59.340;18.040;2022-10-22T12:04:15;6.10;;;5.50;;
12129;SDS011;6128;59.340;18.040;2022-10-22T12:06:51;6.63;;;6.00;;
12129;SDS011;6128;59.340;18.040;2022-10-22T12:09:21;6.27;;;5.67;;
12129;SDS011;6128;59.340;18.040;2022-10-22T12:14:50;7.90;;;6.43;;
12129;SDS011;6128;59.340;18.040;2022-10-22T12:17:19;6.57;;;6.07;;
12129;SDS011;6128;59.340;18.040;2022-10-22T12:19:48;6.30;;;5.70;;
12129;SDS011;6128;59.340;18.040;2022-10-22T12:22:25;7.20;;;6.50;;
12129;SDS011;6128;59.340;18.040;2022-10-22T12:24:55;8.47;;;7.37;;
12129;SDS011;6128;59.340;18.040;2022-10-22T12:27:33;7.70;;;7.00;;
12129;SDS011;6128;59.340;18.040;2022-10-22T12:30:02;8.10;;;7.33;;
12129;SDS011;6128;59.340;18.040;2022-10-22T12:32:43;7.43;;;6.80;;
12129;SDS011;6128;59.340;18.040;2022-10-22T12:35:14;7.43;;;6.73;;
12129;SDS011;6128;59.340;18.040;2022-10-22T12:37:43;9.43;;;7.37;;
12129;SDS011;6128;59.340;18.040;2022-10-22T12:40:15;7.83;;;7.13;;
12129;SDS011;6128;59.340;18.040;2022-10-22T12:42:57;7.77;;;7.07;;
12129;SDS011;6128;59.340;18.040;2022-10-22T12:45:28;8.37;;;7.47;;
12129;SDS011;6128;59.340;18.040;2022-10-22T12:47:59;7.57;;;6.73;;
12129;SDS011;6128;59.340;18.040;2022-10-22T12:50:32;7.03;;;6.43;;
12129;SDS011;6128;59.340;18.040;2022-10-22T12:53:03;7.53;;;6.73;;
12129;SDS011;6128;59.340;18.040;2022-10-22T12:55:31;7.17;;;6.57;;
12129;SDS011;6128;59.340;18.040;2022-10-22T12:58:05;7.73;;;7.07;;
12129;SDS011;6128;59.340;18.040;2022-10-22T13:00:34;7.40;;;6.80;;
12129;SDS011;6128;59.340;18.040;2022-10-22T13:03:05;7.30;;;6.63;;
12129;SDS011;6128;59.340;18.040;2022-10-22T13:05:36;8.17;;;7.37;;
12129;SDS011;6128;59.340;18.040;2022-10-22T13:10:56;8.50;;;7.70;;
12129;SDS011;6128;59.340;18.040;2022-10-22T13:13:41;9.40;;;7.23;;
12129;SDS011;6128;59.340;18.040;2022-10-22T13:16:13;8.07;;;6.70;;
12129;SDS011;6128;59.340;18.040;2022-10-22T13:18:42;8.60;;;7.60;;
12129;SDS011;6128;59.340;18.040;2022-10-22T13:21:21;8.00;;;7.13;;
12129;SDS011;6128;59.340;18.040;2022-10-22T13:23:54;8.60;;;7.80;;
12129;SDS011;6128;59.340;18.040;2022-10-22T13:26:24;8.93;;;6.93;;
12129;SDS011;6128;59.340;18.040;2022-10-22T13:28:57;7.83;;;7.13;;
12129;SDS011;6128;59.340;18.040;2022-10-22T13:31:27;8.07;;;7.33;;
12129;SDS011;6128;59.340;18.040;2022-10-22T13:33:58;10.10;;;8.17;;
12129;SDS011;6128;59.340;18.040;2022-10-22T13:36:28;11.73;;;8.23;;
12129;SDS011;6128;59.340;18.040;2022-10-22T13:38:55;8.87;;;7.80;;
12129;SDS011;6128;59.340;18.040;2022-10-22T13:41:23;8.07;;;7.30;;
12129;SDS011;6128;59.340;18.040;2022-10-22T13:43:51;10.67;;;8.17;;
12129;SDS011;6128;59.340;18.040;2022-10-22T13:46:21;9.93;;;7.73;;
12129;SDS011;6128;59.340;18.040;2022-10-22T13:48:51;9.23;;;8.07;;
12129;SDS011;6128;59.340;18.040;2022-10-22T13:51:20;7.70;;;7.07;;
12129;SDS011;6128;59.340;18.040;2022-10-22T13:53:49;8.43;;;7.70;;
12129;SDS011;6128;59.340;18.040;2022-10-22T13:56:18;8.10;;;7.33;;
12129;SDS011;6128;59.340;18.040;2022-10-22T13:58:46;8.07;;;7.27;;
12129;SDS011;6128;59.340;18.040;2022-10-22T14:01:18;9.77;;;7.50;;
12129;SDS011;6128;59.340;18.040;2022-10-22T14:03:49;9.83;;;8.63;;
12129;SDS011;6128;59.340;18.040;2022-10-22T14:06:18;9.70;;;7.93;;
12129;SDS011;6128;59.340;18.040;2022-10-22T14:08:47;9.37;;;8.47;;
12129;SDS011;6128;59.340;18.040;2022-10-22T14:11:18;11.43;;;8.63;;
12129;SDS011;6128;59.340;18.040;2022-10-22T14:13:45;9.00;;;8.20;;
12129;SDS011;6128;59.340;18.040;2022-10-22T14:16:14;10.03;;;8.20;;
12129;SDS011;6128;59.340;18.040;2022-10-22T14:18:45;9.43;;;8.53;;
12129;SDS011;6128;59.340;18.040;2022-10-22T14:21:13;9.53;;;8.30;;
12129;SDS011;6128;59.340;18.040;2022-10-22T14:23:42;8.63;;;7.73;;
12129;SDS011;6128;59.340;18.040;2022-10-22T14:26:13;8.87;;;8.07;;
12129;SDS011;6128;59.340;18.040;2022-10-22T14:28:46;9.67;;;8.77;;
12129;SDS011;6128;59.340;18.040;2022-10-22T14:31:14;9.53;;;8.53;;
12129;SDS011;6128;59.340;18.040;2022-10-22T14:33:41;8.80;;;8.10;;
12129;SDS011;6128;59.340;18.040;2022-10-22T14:36:11;8.50;;;7.70;;
12129;SDS011;6128;59.340;18.040;2022-10-22T14:38:40;10.13;;;9.20;;
12129;SDS011;6128;59.340;18.040;2022-10-22T14:41:12;8.50;;;7.57;;
12129;SDS011;6128;59.340;18.040;2022-10-22T14:43:43;9.27;;;8.47;;
12129;SDS011;6128;59.340;18.040;2022-10-22T14:46:11;12.77;;;11.50;;
12129;SDS011;6128;59.340;18.040;2022-10-22T14:48:40;11.47;;;10.43;;
12129;SDS011;6128;59.340;18.040;2022-10-22T14:51:09;11.20;;;9.30;;
12129;SDS011;6128;59.340;18.040;2022-10-22T14:53:41;9.07;;;8.17;;
12129;SDS011;6128;59.340;18.040;2022-10-22T14:56:09;10.97;;;9.90;;
12129;SDS011;6128;59.340;18.040;2022-10-22T14:58:38;9.90;;;9.10;;
12129;SDS011;6128;59.340;18.040;2022-10-22T15:01:05;10.20;;;9.13;;
12129;SDS011;6128;59.340;18.040;2022-10-22T15:03:33;10.93;;;9.00;;
12129;SDS011;6128;59.340;18.040;2022-10-22T15:06:01;11.37;;;9.17;;
12129;SDS011;6128;59.340;18.040;2022-10-22T15:08:30;12.67;;;11.47;;
12129;SDS011;6128;59.340;18.040;2022-10-22T15:10:58;10.30;;;9.20;;
12129;SDS011;6128;59.340;18.040;2022-10-22T15:13:26;11.33;;;10.10;;
12129;SDS011;6128;59.340;18.040;2022-10-22T15:15:54;12.30;;;10.83;;
12129;SDS011;6128;59.340;18.040;2022-10-22T15:18:21;12.03;;;9.03;;